Time;durP1;ratioP1;P1;durP2;ratioP2;P2;SDS_P1;SDS_P2;PMS_P1;PMS_P2;Temp;Humidity;BMP_temperature;BMP_pressure;BME280_temperature;BME280_humidity;BME280_pressure;Samples;Min_cycle;Max_cycle;Signal;HPM_P1;HPM_P2
2023/10/31 00:01:40;;;;;;;0.40;0.40;;;;;;;19.05;53.22;98388.50;5074058;28;20051;-70
2023/10/31 00:04:09;;;;;;;1.50;1.25;;;;;;;19.02;53.51;98391.25;5074271;28;20308;-69
2023/10/31 00:06:38;;;;;;;0.47;0.47;;;;;;;19.02;53.48;98375.75;5073913;28;20036;-69
2023/10/31 00:09:06;;;;;;;0.83;0.83;;;;;;;19.07;53.26;98378.91;5073240;28;20037;-69
2023/10/31 00:11:35;;;;;;;2.50;1.03;;;;;;;19.02;53.48;98365.41;5073826;28;20293;-69
2023/10/31 00:14:06;;;;;;;1.15;1.10;;;;;;;19.03;53.41;98367.88;5074252;28;20044;-68
2023/10/31 00:16:55;;;;;;;0.30;0.30;;;;;;;19.07;53.35;98371.16;5072613;28;20052;-67
2023/10/31 00:19:24;;;;;;;1.98;0.95;;;;;;;19.11;53.40;98364.88;5073747;28;20536;-69
2023/10/31 00:21:53;;;;;;;0.52;0.52;;;;;;;19.12;53.46;98361.38;5074318;28;20036;-70
2023/10/31 00:24:22;;;;;;;1.85;1.55;;;;;;;19.11;53.33;98339.00;5073879;28;20542;-68
2023/10/31 00:26:50;;;;;;;0.82;0.73;;;;;;;19.11;53.58;98341.59;5073665;28;20048;-68
2023/10/31 00:29:21;;;;;;;1.48;1.27;;;;;;;19.09;53.80;98335.69;5072495;28;20045;-69
2023/10/31 00:31:50;;;;;;;1.27;0.80;;;;;;;19.09;53.60;98317.56;5073581;28;20131;-69
2023/10/31 00:34:18;;;;;;;0.60;0.60;;;;;;;19.14;53.28;98315.56;5073967;28;20135;-70
2023/10/31 00:36:47;;;;;;;0.70;0.70;;;;;;;19.22;52.75;98310.75;5074134;28;20045;-69
2023/10/31 00:39:16;;;;;;;0.83;0.83;;;;;;;19.28;52.81;98313.00;5072344;28;20041;-69
2023/10/31 00:41:46;;;;;;;1.58;1.48;;;;;;;19.19;53.57;98309.22;5072500;28;20498;-70
2023/10/31 00:44:15;;;;;;;1.92;1.00;;;;;;;19.14;53.69;98302.63;5073473;28;20076;-72
2023/10/31 00:46:45;;;;;;;0.40;0.40;;;;;;;19.17;53.74;98305.06;5072034;28;20044;-69
2023/10/31 00:49:14;;;;;;;1.05;0.90;;;;;;;19.15;53.54;98299.94;5073553;28;20116;-67
2023/10/31 00:51:43;;;;;;;0.60;0.60;;;;;;;19.30;52.81;98290.47;5073652;28;20107;-70
2023/10/31 00:54:12;;;;;;;0.75;0.75;;;;;;;19.34;52.73;98284.19;5072282;28;20062;-70
2023/10/31 00:56:41;;;;;;;1.15;1.02;;;;;;;19.42;52.33;98281.19;5073425;28;20041;-69
2023/10/31 00:59:10;;;;;;;1.90;0.88;;;;;;;19.43;52.93;98270.75;5073524;28;20115;-70
2023/10/31 01:01:39;;;;;;;0.50;0.50;;;;;;;19.45;52.93;98271.50;5073263;28;20036;-70
2023/10/31 01:04:09;;;;;;;0.68;0.68;;;;;;;19.43;53.03;98275.94;5073629;28;20044;-69
2023/10/31 01:06:42;;;;;;;0.90;0.88;;;;;;;19.43;52.96;98288.88;5073265;28;20060;-69
2023/10/31 01:09:11;;;;;;;0.80;0.80;;;;;;;19.38;53.33;98285.72;5072370;28;20138;-67
2023/10/31 01:11:40;;;;;;;6.57;1.38;;;;;;;19.46;52.46;98278.31;5073187;28;20128;-68
2023/10/31 01:14:09;;;;;;;0.40;0.40;;;;;;;19.50;52.77;98290.19;5072197;28;20119;-68
2023/10/31 01:16:38;;;;;;;0.55;0.50;;;;;;;19.42;53.33;98276.84;5073671;28;20048;-63
2023/10/31 01:19:07;;;;;;;0.47;0.47;;;;;;;19.33;53.77;98274.78;5073827;28;20083;-69
2023/10/31 01:21:37;;;;;;;0.50;0.50;;;;;;;19.30;53.95;98256.84;5077220;28;20743;-70
2023/10/31 01:24:06;;;;;;;0.88;0.88;;;;;;;19.23;54.29;98258.13;5059667;28;20049;-69
2023/10/31 01:26:35;;;;;;;0.57;0.57;;;;;;;19.29;53.54;98250.81;5076257;28;20040;-69
2023/10/31 01:29:05;;;;;;;0.60;0.60;;;;;;;19.35;52.83;98247.06;5076966;28;20049;-69
2023/10/31 01:31:36;;;;;;;0.65;0.65;;;;;;;19.38;53.17;98250.34;5077015;28;20057;-68
2023/10/31 01:34:23;;;;;;;1.02;0.65;;;;;;;19.35;53.21;98232.38;5077360;28;20472;-70
2023/10/31 01:36:53;;;;;;;0.53;0.53;;;;;;;19.25;53.47;98217.47;5076961;28;20114;-70
2023/10/31 01:39:22;;;;;;;0.63;0.63;;;;;;;19.35;52.82;98232.38;5077159;28;20091;-69
2023/10/31 01:41:52;;;;;;;0.70;0.70;;;;;;;19.36;52.96;98225.47;5077189;28;20557;-70
2023/10/31 01:44:21;;;;;;;0.60;0.60;;;;;;;19.34;53.05;98216.91;5076902;28;20624;-71
2023/10/31 01:46:50;;;;;;;0.53;0.53;;;;;;;19.25;53.58;98217.47;5076664;28;20053;-69
2023/10/31 01:49:19;;;;;;;0.60;0.60;;;;;;;19.24;53.27;98210.66;5075486;28;20281;-71
2023/10/31 01:51:49;;;;;;;0.82;0.82;;;;;;;19.30;53.09;98194.75;5075661;28;20321;-70
2023/10/31 01:54:19;;;;;;;0.70;0.68;;;;;;;19.25;53.25;98196.78;5075801;28;20036;-69
2023/10/31 01:56:50;;;;;;;0.70;0.70;;;;;;;19.24;53.02;98189.94;5077146;28;20095;-71
2023/10/31 01:59:19;;;;;;;1.45;1.15;;;;;;;19.21;52.94;98184.94;5075736;28;20441;-69
2023/10/31 02:01:49;;;;;;;0.75;0.75;;;;;;;19.22;52.48;98191.78;5075708;28;20745;-69
2023/10/31 02:04:18;;;;;;;1.67;0.88;;;;;;;19.15;52.39;98174.94;5076361;28;20620;-70
2023/10/31 02:06:47;;;;;;;0.60;0.60;;;;;;;19.23;51.71;98188.28;5076657;28;20082;-70
2023/10/31 02:09:16;;;;;;;0.63;0.63;;;;;;;19.32;51.11;98188.56;5075514;28;20360;-69
2023/10/31 02:11:46;;;;;;;0.60;0.60;;;;;;;19.45;50.21;98190.44;5074903;28;20044;-65
2023/10/31 02:14:15;;;;;;;1.38;1.00;;;;;;;19.52;50.11;98187.41;5076284;28;20059;-67
2023/10/31 02:16:44;;;;;;;0.57;0.57;;;;;;;19.52;50.21;98189.97;5075043;28;20132;-67
2023/10/31 02:19:15;;;;;;;0.77;0.77;;;;;;;19.47;50.47;98180.81;5076100;28;20284;-64
2023/10/31 02:21:47;;;;;;;0.65;0.60;;;;;;;19.22;52.84;98163.31;5075967;28;20052;-70
2023/10/31 02:24:16;;;;;;;0.70;0.70;;;;;;;19.00;54.05;98156.03;5074964;28;20053;-67
2023/10/31 02:26:46;;;;;;;1.75;1.25;;;;;;;19.01;52.34;98162.84;5076309;28;20412;-65
2023/10/31 02:29:15;;;;;;;0.82;0.80;;;;;;;19.15;50.87;98164.59;5075913;28;20075;-69
2023/10/31 02:31:44;;;;;;;0.97;0.90;;;;;;;19.33;50.45;98173.88;5073745;28;20045;-66
2023/10/31 02:34:15;;;;;;;1.30;1.20;;;;;;;19.26;51.44;98172.56;5075979;28;20071;-70
2023/10/31 02:36:43;;;;;;;1.02;1.00;;;;;;;19.04;53.14;98167.00;5076199;28;20057;-66
2023/10/31 02:39:14;;;;;;;1.03;0.93;;;;;;;18.92;53.05;98173.75;5075741;28;20128;-67
2023/10/31 02:41:43;;;;;;;1.35;1.02;;;;;;;18.87;53.08;98168.00;5075619;28;20131;-67
2023/10/31 02:44:12;;;;;;;2.42;1.25;;;;;;;18.85;53.36;98161.25;5075720;28;20052;-69
2023/10/31 02:46:41;;;;;;;0.85;0.57;;;;;;;18.81;52.90;98147.69;5075479;28;20048;-68
2023/10/31 02:49:10;;;;;;;0.73;0.73;;;;;;;18.90;52.11;98148.88;5075606;28;20048;-69
2023/10/31 02:51:39;;;;;;;0.52;0.52;;;;;;;18.97;51.89;98145.03;5074386;28;20567;-68
2023/10/31 02:54:08;;;;;;;0.90;0.77;;;;;;;19.00;51.89;98139.69;5075515;28;20040;-69
2023/10/31 02:56:38;;;;;;;0.63;0.63;;;;;;;19.02;51.49;98124.91;5074637;28;20036;-70
2023/10/31 02:59:07;;;;;;;0.50;0.50;;;;;;;18.97;51.53;98119.16;5075437;28;20044;-69
2023/10/31 03:01:37;;;;;;;1.17;1.08;;;;;;;19.01;50.56;98121.47;5075269;28;20052;-63
2023/10/31 03:04:06;;;;;;;1.58;1.48;;;;;;;19.12;50.19;98123.44;5075529;28;20041;-68
2023/10/31 03:06:35;;;;;;;1.30;0.98;;;;;;;19.06;50.64;98126.38;5075440;28;20056;-67
2023/10/31 03:09:04;;;;;;;0.80;0.70;;;;;;;19.07;50.29;98125.47;5075238;28;20486;-70
2023/10/31 03:11:33;;;;;;;0.50;0.50;;;;;;;19.13;49.55;98128.50;5073778;28;20036;-67
2023/10/31 03:14:03;;;;;;;1.30;1.20;;;;;;;19.11;49.31;98107.06;5075372;28;20040;-68
2023/10/31 03:16:33;;;;;;;13.90;1.67;;;;;;;19.21;49.08;98128.03;5074541;28;20442;-69
2023/10/31 03:19:03;;;;;;;4.03;1.63;;;;;;;19.17;49.45;98142.09;5073948;28;20052;-69
2023/10/31 03:21:32;;;;;;;0.70;0.70;;;;;;;19.12;49.49;98138.94;5074901;28;20048;-66
2023/10/31 03:24:01;;;;;;;0.68;0.68;;;;;;;19.11;49.57;98126.94;5075174;28;20037;-68
2023/10/31 03:26:30;;;;;;;1.75;1.08;;;;;;;19.11;49.01;98137.28;5073736;28;20067;-66
2023/10/31 03:28:59;;;;;;;0.68;0.68;;;;;;;19.07;50.18;98140.97;5075392;28;20045;-65
2023/10/31 03:31:29;;;;;;;0.70;0.70;;;;;;;18.87;51.52;98128.38;5075047;28;20056;-68
2023/10/31 03:33:58;;;;;;;3.33;1.25;;;;;;;18.73;52.74;98147.28;5074959;28;20281;-68
2023/10/31 03:36:27;;;;;;;1.52;1.25;;;;;;;18.38;54.66;98151.03;5074997;28;20044;-68
2023/10/31 03:38:55;;;;;;;1.80;1.07;;;;;;;18.13;55.67;98146.41;5073302;28;20045;-71
2023/10/31 03:41:24;;;;;;;0.70;0.70;;;;;;;18.02;56.40;98143.56;5074546;28;20041;-70
2023/10/31 03:43:53;;;;;;;0.68;0.68;;;;;;;17.99;56.21;98159.25;5074483;28;20114;-71
2023/10/31 03:46:22;;;;;;;15.60;1.25;;;;;;;17.94;56.47;98150.94;5074348;28;20128;-69
2023/10/31 03:48:52;;;;;;;2.50;1.33;;;;;;;17.87;56.63;98144.44;5073152;28;20051;-71
2023/10/31 03:51:21;;;;;;;0.60;0.60;;;;;;;17.80;56.94;98143.13;5074660;28;20448;-71
2023/10/31 03:53:50;;;;;;;1.13;1.03;;;;;;;17.80;56.39;98148.28;5073136;28;20044;-68
2023/10/31 03:56:19;;;;;;;0.50;0.50;;;;;;;17.71;57.11;98134.09;5073017;28;20055;-69
2023/10/31 03:58:48;;;;;;;1.10;1.00;;;;;;;17.63;57.69;98120.81;5074203;28;20528;-70
2023/10/31 04:01:17;;;;;;;;;;;;;;;17.66;56.70;98119.81;5073611;28;20281;-69
2023/10/31 04:03:46;;;;;;;1.52;0.68;;;;;;;17.68;56.26;98108.50;5089758;28;20397;-73
2023/10/31 04:06:16;;;;;;;0.70;0.70;;;;;;;17.67;56.47;98111.97;5074109;28;20040;-68
2023/10/31 04:08:45;;;;;;;6.07;2.35;;;;;;;17.69;56.12;98094.66;5074042;28;20298;-70
2023/10/31 04:11:14;;;;;;;0.50;0.50;;;;;;;17.68;56.42;98084.44;5072863;28;20041;-68
2023/10/31 04:13:43;;;;;;;0.60;0.60;;;;;;;17.63;56.82;98083.84;5073836;28;20558;-66
2023/10/31 04:16:12;;;;;;;0.73;0.73;;;;;;;17.58;56.38;98093.56;5073866;28;20494;-68
2023/10/31 04:18:41;;;;;;;0.88;0.82;;;;;;;17.54;56.38;98081.78;5073734;28;20517;-69
2023/10/31 04:21:09;;;;;;;1.33;1.23;;;;;;;17.52;56.72;98081.84;5073871;28;20115;-69
2023/10/31 04:23:40;;;;;;;0.50;0.50;;;;;;;17.55;56.55;98086.00;5073691;28;20047;-70
2023/10/31 04:26:08;;;;;;;1.25;1.15;;;;;;;17.56;56.23;98078.19;5073772;28;20060;-68
2023/10/31 04:28:37;;;;;;;2.33;1.97;;;;;;;17.60;55.55;98068.53;5073697;28;20047;-70
2023/10/31 04:31:06;;;;;;;0.75;0.75;;;;;;;17.64;55.36;98070.00;5074041;28;20288;-69
2023/10/31 04:33:35;;;;;;;0.68;0.68;;;;;;;17.63;55.19;98073.53;5073570;28;20513;-68
2023/10/31 04:36:05;;;;;;;1.30;1.00;;;;;;;17.66;54.58;98068.22;5073619;28;20094;-71
2023/10/31 04:38:33;;;;;;;;;;;;;;;17.70;54.15;98067.94;5073873;28;20036;-68
2023/10/31 04:41:04;;;;;;;1.52;0.75;;;;;;;17.75;53.46;98067.69;5073485;28;19920;-69
2023/10/31 04:43:33;;;;;;;1.08;0.80;;;;;;;17.80;53.32;98069.06;5073541;28;20090;-69
2023/10/31 04:46:01;;;;;;;0.30;0.30;;;;;;;17.80;52.71;98076.00;5072281;28;20055;-69
2023/10/31 04:48:31;;;;;;;1.50;1.10;;;;;;;17.81;52.71;98073.34;5073695;28;20612;-71
2023/10/31 04:51:01;;;;;;;3.25;1.90;;;;;;;17.82;52.35;98084.50;5073531;28;20128;-71
2023/10/31 04:53:32;;;;;;;1.27;1.10;;;;;;;17.90;51.58;98084.91;5073846;28;20123;-71
2023/10/31 04:56:03;;;;;;;0.73;0.73;;;;;;;17.97;51.10;98083.66;5073257;28;20115;-69
2023/10/31 04:58:32;;;;;;;0.85;0.82;;;;;;;18.03;50.84;98073.81;5073299;28;20129;-73
2023/10/31 05:01:01;;;;;;;0.80;0.80;;;;;;;18.04;50.40;98088.34;5073316;28;20051;-70
2023/10/31 05:03:29;;;;;;;0.50;0.50;;;;;;;18.13;50.24;98104.25;5073249;28;20052;-69
2023/10/31 05:05:58;;;;;;;0.60;0.60;;;;;;;18.09;50.66;98108.78;5073623;28;20033;-67
2023/10/31 05:08:27;;;;;;;7.10;0.70;;;;;;;18.02;51.83;98133.25;5073275;28;20044;-68
2023/10/31 05:10:56;;;;;;;1.03;0.70;;;;;;;17.81;53.70;98155.09;5073160;28;20052;-72
2023/10/31 05:13:26;;;;;;;0.80;0.80;;;;;;;17.52;55.61;98142.91;5073220;28;20071;-72
2023/10/31 05:15:55;;;;;;;0.68;0.68;;;;;;;17.25;57.46;98161.47;5073304;28;20406;-71
2023/10/31 05:18:24;;;;;;;2.80;1.95;;;;;;;17.00;58.62;98150.78;5073319;28;20043;-69
2023/10/31 05:20:54;;;;;;;0.57;0.57;;;;;;;16.83;59.77;98155.94;5073153;28;20041;-68
2023/10/31 05:23:22;;;;;;;0.60;0.60;;;;;;;16.62;61.30;98164.75;5073144;28;20494;-72
2023/10/31 05:25:51;;;;;;;1.38;1.27;;;;;;;16.43;62.97;98151.91;5072990;28;20055;-72
2023/10/31 05:28:20;;;;;;;0.85;0.85;;;;;;;16.34;63.38;98148.94;5073016;28;20094;-74
2023/10/31 05:30:50;;;;;;;0.70;0.70;;;;;;;16.24;64.13;98142.56;5073005;28;20139;-72
2023/10/31 05:33:19;;;;;;;1.40;1.30;;;;;;;16.20;63.71;98147.00;5073127;28;20062;-71
2023/10/31 05:35:48;;;;;;;2.40;0.95;;;;;;;16.20;63.90;98156.47;5072910;28;20044;-71
2023/10/31 05:38:17;;;;;;;0.50;0.50;;;;;;;16.17;63.65;98151.50;5073160;28;20037;-72
2023/10/31 05:40:46;;;;;;;1.30;0.83;;;;;;;16.23;62.22;98166.63;5073264;28;20445;-69
2023/10/31 05:43:15;;;;;;;1.90;1.00;;;;;;;16.29;62.36;98166.34;5072933;28;20816;-69
2023/10/31 05:45:43;;;;;;;1.27;1.17;;;;;;;16.29;62.60;98171.50;5072566;28;20281;-74
2023/10/31 05:48:14;;;;;;;1.00;0.93;;;;;;;16.24;63.14;98191.47;5072868;28;20048;-71
2023/10/31 05:50:43;;;;;;;1.75;1.13;;;;;;;16.21;63.48;98181.31;5072828;28;20124;-70
2023/10/31 05:53:12;;;;;;;1.57;1.47;;;;;;;16.20;63.56;98192.50;5073086;28;20063;-70
2023/10/31 05:55:41;;;;;;;0.85;0.85;;;;;;;16.22;62.67;98198.44;5073034;28;20545;-72
2023/10/31 05:58:10;;;;;;;26.35;2.83;;;;;;;16.21;63.49;98179.59;5073024;28;20064;-71
2023/10/31 06:00:39;;;;;;;1.05;1.00;;;;;;;16.21;62.44;98179.59;5073022;28;20402;-71
2023/10/31 06:03:09;;;;;;;0.67;0.67;;;;;;;16.26;62.77;98193.06;5073026;28;20406;-72
2023/10/31 06:05:39;;;;;;;1.80;1.30;;;;;;;16.29;61.74;98179.22;5072677;28;20072;-70
2023/10/31 06:08:08;;;;;;;0.82;0.82;;;;;;;16.31;62.50;98169.69;5076258;28;20052;-72
2023/10/31 06:10:37;;;;;;;1.70;1.33;;;;;;;16.17;60.87;98128.31;5076119;28;20126;-71
2023/10/31 06:13:06;;;;;;;0.60;0.60;;;;;;;16.55;60.38;98155.66;5075092;28;20083;-64
2023/10/31 06:15:35;;;;;;;5.82;0.82;;;;;;;16.59;60.77;98170.03;5076065;28;20040;-72
2023/10/31 06:18:04;;;;;;;0.50;0.50;;;;;;;16.52;60.59;98173.81;5076265;28;20379;-68
2023/10/31 06:20:34;;;;;;;1.65;0.98;;;;;;;16.59;59.89;98176.03;5076121;28;20051;-66
2023/10/31 06:23:04;;;;;;;1.75;1.48;;;;;;;16.64;60.06;98168.06;5076050;28;20051;-67
2023/10/31 06:25:33;;;;;;;12.00;1.88;;;;;;;16.70;59.76;98163.44;5075996;28;20056;-71
2023/10/31 06:28:02;;;;;;;;;;;;;;;16.83;58.98;98165.41;5076594;28;20041;-69
2023/10/31 06:30:31;;;;;;;0.50;0.50;;;;;;;16.96;58.59;98169.88;5075850;28;19925;-70
2023/10/31 06:33:00;;;;;;;0.77;0.77;;;;;;;16.88;59.25;98177.16;5076192;28;20466;-75
2023/10/31 06:35:29;;;;;;;1.02;0.80;;;;;;;16.76;59.32;98172.63;5076077;28;20394;-69
2023/10/31 06:37:58;;;;;;;1.23;1.13;;;;;;;16.78;59.68;98175.94;5074773;28;20041;-70
2023/10/31 06:40:28;;;;;;;0.80;0.80;;;;;;;16.59;60.99;98203.53;5075740;28;20041;-71
2023/10/31 06:42:57;;;;;;;0.47;0.47;;;;;;;16.59;60.34;98211.25;5071110;28;20086;-74
2023/10/31 06:45:26;;;;;;;0.60;0.60;;;;;;;16.57;60.38;98192.47;5073424;28;20048;-73
2023/10/31 06:47:55;;;;;;;0.40;0.40;;;;;;;16.52;60.54;98195.25;5061790;28;20398;-71
2023/10/31 06:50:24;;;;;;;0.40;0.40;;;;;;;16.57;59.17;98197.63;5055361;28;20136;-72
2023/10/31 06:52:53;;;;;;;0.47;0.47;;;;;;;16.53;60.38;98194.34;5061188;28;20034;-70
2023/10/31 06:55:21;;;;;;;0.90;0.60;;;;;;;16.50;60.02;98185.91;5067483;28;20131;-71
2023/10/31 06:57:52;;;;;;;1.00;0.90;;;;;;;16.50;60.30;98211.66;5074305;28;20475;-69
2023/10/31 07:00:21;;;;;;;0.60;0.60;;;;;;;16.44;60.81;98223.09;5075435;28;20132;-69
2023/10/31 07:02:50;;;;;;;0.60;0.60;;;;;;;16.42;60.54;98214.59;5065362;28;20482;-68
2023/10/31 07:05:20;;;;;;;0.60;0.60;;;;;;;16.48;60.11;98213.50;5074252;28;20044;-71
2023/10/31 07:07:49;;;;;;;0.95;0.95;;;;;;;16.47;59.75;98188.63;5075050;28;20117;-70
2023/10/31 07:10:18;;;;;;;1.10;1.00;;;;;;;16.65;59.51;98204.06;5073325;28;20075;-69
2023/10/31 07:12:47;;;;;;;0.80;0.80;;;;;;;16.77;59.35;98230.16;5073792;28;20444;-72
2023/10/31 07:15:17;;;;;;;1.00;0.90;;;;;;;16.72;59.45;98214.91;5073863;28;20372;-75
2023/10/31 07:17:46;;;;;;;0.85;0.77;;;;;;;16.51;60.67;98213.31;5074588;28;20048;-74
2023/10/31 07:20:15;;;;;;;2.10;0.95;;;;;;;16.42;60.95;98204.31;5072709;28;20437;-74
2023/10/31 07:22:44;;;;;;;0.75;0.75;;;;;;;16.50;60.93;98219.41;5075012;28;20032;-73
2023/10/31 07:25:13;;;;;;;1.13;1.00;;;;;;;16.49;61.06;98222.88;5074835;28;20040;-72
2023/10/31 07:27:42;;;;;;;0.60;0.60;;;;;;;16.57;60.54;98213.06;5074712;28;20501;-72
2023/10/31 07:30:12;;;;;;;0.83;0.83;;;;;;;16.57;59.33;98198.47;5075167;28;20049;-70
2023/10/31 07:32:42;;;;;;;9.77;1.95;;;;;;;16.69;59.10;98215.06;5067047;28;20376;-70
2023/10/31 07:35:11;;;;;;;0.52;0.52;;;;;;;16.68;59.41;98208.22;5054809;28;20045;-73
2023/10/31 07:37:40;;;;;;;0.60;0.60;;;;;;;16.57;60.18;98224.22;5054579;28;20124;-73
2023/10/31 07:40:09;;;;;;;1.52;1.42;;;;;;;16.44;59.99;98201.66;5054726;28;20041;-73
2023/10/31 07:42:38;;;;;;;0.63;0.63;;;;;;;16.53;59.61;98211.56;5060172;28;20041;-75
2023/10/31 07:45:08;;;;;;;0.80;0.80;;;;;;;16.61;58.94;98210.28;5073302;28;20041;-69
2023/10/31 07:47:36;;;;;;;0.70;0.70;;;;;;;16.65;58.77;98224.66;5074738;28;20050;-71
2023/10/31 07:50:07;;;;;;;0.60;0.60;;;;;;;16.63;60.02;98223.06;5074662;28;20565;-74
2023/10/31 07:52:36;;;;;;;0.77;0.70;;;;;;;16.60;60.91;98238.69;5073149;28;20054;-74
2023/10/31 07:55:06;;;;;;;2.17;0.70;;;;;;;16.51;61.54;98244.22;5074626;28;20044;-77
2023/10/31 07:57:34;;;;;;;0.60;0.60;;;;;;;16.47;62.32;98253.00;5060998;28;20091;-73
2023/10/31 08:00:03;;;;;;;0.63;0.60;;;;;;;16.38;62.96;98258.59;5054184;28;20044;-75
2023/10/31 08:02:40;;;;;;;0.85;0.70;;;;;;;16.39;62.39;98249.94;5054323;28;20109;-74
2023/10/31 08:05:11;;;;;;;3.72;2.30;;;;;;;16.46;62.50;98261.66;5054163;28;20047;-73
2023/10/31 08:07:40;;;;;;;0.98;0.88;;;;;;;16.42;63.47;98262.69;5054400;28;20049;-71
2023/10/31 08:10:09;;;;;;;1.58;1.20;;;;;;;16.39;63.97;98278.28;5054156;28;20049;-76
2023/10/31 08:12:38;;;;;;;0.70;0.70;;;;;;;16.32;64.55;98282.03;5068402;28;20476;-77
2023/10/31 08:15:08;;;;;;;1.30;1.17;;;;;;;16.21;65.31;98284.28;5074412;28;20493;-70
2023/10/31 08:17:37;;;;;;;0.73;0.73;;;;;;;16.16;65.59;98293.97;5074062;28;20068;-71
2023/10/31 08:20:07;;;;;;;5.63;3.00;;;;;;;16.16;65.36;98299.09;5073945;28;20040;-70
2023/10/31 08:22:38;;;;;;;2.15;1.95;;;;;;;16.10;66.06;98311.34;5073343;28;20355;-73
2023/10/31 08:25:08;;;;;;;0.70;0.70;;;;;;;16.02;66.09;98303.16;5073787;28;20047;-70
2023/10/31 08:27:36;;;;;;;;;;;;;;;16.00;66.61;98315.22;5074457;28;20066;-72
2023/10/31 08:30:06;;;;;;;1.25;1.15;;;;;;;15.98;67.16;98311.91;5064625;28;20334;-77
2023/10/31 08:32:35;;;;;;;0.85;0.80;;;;;;;15.95;67.10;98319.78;5053605;28;20069;-74
2023/10/31 08:35:04;;;;;;;0.60;0.60;;;;;;;15.88;67.83;98332.97;5053679;28;20041;-78
2023/10/31 08:37:33;;;;;;;0.57;0.57;;;;;;;15.86;67.73;98327.88;5053413;28;20398;-70
2023/10/31 08:40:04;;;;;;;0.32;0.32;;;;;;;15.84;66.62;98328.84;5058793;28;20074;-72
2023/10/31 08:42:33;;;;;;;1.10;1.00;;;;;;;15.79;66.51;98317.91;5072993;28;20044;-76
2023/10/31 08:45:03;;;;;;;0.27;0.27;;;;;;;15.64;66.86;98293.72;5073328;28;20041;-74
2023/10/31 08:47:32;;;;;;;1.20;1.10;;;;;;;15.86;66.73;98332.22;5073371;28;20136;-71
2023/10/31 08:50:03;;;;;;;0.80;0.80;;;;;;;15.89;67.15;98335.47;5072895;28;20052;-75
2023/10/31 08:52:32;;;;;;;0.50;0.50;;;;;;;15.80;67.20;98333.28;5073586;28;20478;-74
2023/10/31 08:55:00;;;;;;;0.70;0.70;;;;;;;15.86;66.88;98343.31;5073298;28;20489;-73
2023/10/31 08:57:31;;;;;;;1.70;1.47;;;;;;;15.79;67.72;98331.63;5073308;28;20043;-76
2023/10/31 08:59:59;;;;;;;0.52;0.52;;;;;;;15.76;68.39;98325.78;5053939;28;20045;-72
2023/10/31 09:02:31;;;;;;;1.65;1.30;;;;;;;15.76;68.58;98306.03;5053390;28;20049;-71
2023/10/31 09:05:00;;;;;;;0.88;0.80;;;;;;;15.78;69.21;98313.69;5053289;28;20044;-76
2023/10/31 09:07:29;;;;;;;0.70;0.60;;;;;;;15.81;69.53;98311.78;5053453;28;20048;-72
2023/10/31 09:09:58;;;;;;;0.47;0.47;;;;;;;15.89;69.34;98309.72;5072066;28;20494;-76
2023/10/31 09:12:27;;;;;;;1.17;1.07;;;;;;;15.94;69.30;98305.22;5073182;28;20288;-70
2023/10/31 09:15:01;;;;;;;0.60;0.57;;;;;;;15.97;69.22;98305.09;5073245;28;20097;-71
2023/10/31 09:17:30;;;;;;;1.13;0.70;;;;;;;15.98;69.18;98301.59;5071177;28;20120;-73
2023/10/31 09:19:59;;;;;;;0.60;0.60;;;;;;;16.05;68.73;98300.41;5072628;28;20048;-71
2023/10/31 09:22:28;;;;;;;0.70;0.70;;;;;;;16.04;68.65;98301.34;5071882;28;20044;-73
2023/10/31 09:24:57;;;;;;;0.50;0.40;;;;;;;16.01;68.99;98296.31;5072854;28;20044;-71
2023/10/31 09:27:26;;;;;;;0.98;0.90;;;;;;;16.02;68.64;98312.59;5073318;28;20072;-73
2023/10/31 09:29:55;;;;;;;0.70;0.70;;;;;;;16.00;68.52;98322.94;5071201;28;20045;-73
2023/10/31 09:32:25;;;;;;;0.73;0.73;;;;;;;16.00;68.84;98315.22;5072032;28;20040;-71
2023/10/31 09:34:54;;;;;;;0.38;0.38;;;;;;;16.04;68.78;98309.06;5073077;28;20055;-72
2023/10/31 09:37:23;;;;;;;0.60;0.60;;;;;;;16.08;69.21;98297.72;5072063;28;20146;-74
2023/10/31 09:39:52;;;;;;;0.87;0.63;;;;;;;16.12;69.42;98297.59;5071788;28;20051;-71
2023/10/31 09:42:21;;;;;;;0.60;0.60;;;;;;;16.17;70.09;98295.66;5076966;28;20127;-76
2023/10/31 09:44:50;;;;;;;0.50;0.50;;;;;;;16.19;70.42;98284.38;5077103;28;20068;-71
2023/10/31 09:47:21;;;;;;;0.80;0.80;;;;;;;16.22;70.22;98273.91;5076531;28;20054;-71
2023/10/31 09:49:51;;;;;;;1.80;1.02;;;;;;;16.24;70.39;98271.28;5076047;28;20079;-72
2023/10/31 09:52:21;;;;;;;0.70;0.70;;;;;;;16.24;70.69;98273.84;5076652;28;20055;-72
2023/10/31 09:54:53;;;;;;;0.60;0.60;;;;;;;16.26;71.02;98284.91;5076709;28;20448;-74
2023/10/31 09:57:22;;;;;;;0.60;0.60;;;;;;;16.00;71.00;98261.19;5076509;28;20482;-74
2023/10/31 09:59:50;;;;;;;0.73;0.63;;;;;;;16.19;70.98;98294.66;5074712;28;20413;-74
2023/10/31 10:02:22;;;;;;;0.63;0.63;;;;;;;16.19;71.21;98288.69;5074559;28;20044;-75
2023/10/31 10:04:53;;;;;;;1.25;0.70;;;;;;;16.16;71.57;98278.50;5076701;28;20044;-75
2023/10/31 10:07:22;;;;;;;0.85;0.80;;;;;;;16.20;71.77;98280.88;5092440;28;20395;-71
2023/10/31 10:09:51;;;;;;;1.37;0.90;;;;;;;16.24;71.92;98281.59;5071221;28;20045;-74
2023/10/31 10:12:20;;;;;;;0.60;0.60;;;;;;;16.16;72.02;98270.78;5056436;28;20308;-74
2023/10/31 10:14:48;;;;;;;2.20;2.00;;;;;;;16.20;71.62;98285.19;5056996;28;20498;-73
2023/10/31 10:17:18;;;;;;;0.68;0.68;;;;;;;16.21;71.94;98286.88;5056557;28;20163;-71
2023/10/31 10:19:48;;;;;;;0.65;0.65;;;;;;;16.13;71.24;98269.19;5056792;28;20466;-73
2023/10/31 10:22:21;;;;;;;1.05;0.90;;;;;;;16.16;71.11;98273.38;5064275;28;20049;-74
2023/10/31 10:24:50;;;;;;;0.50;0.50;;;;;;;16.18;70.94;98261.25;5075010;28;20040;-72
2023/10/31 10:27:21;;;;;;;0.77;0.63;;;;;;;16.23;71.68;98264.47;5076084;28;20496;-73
2023/10/31 10:29:54;;;;;;;0.95;0.60;;;;;;;16.22;71.56;98273.09;5075975;28;20493;-74
2023/10/31 10:32:23;;;;;;;1.02;0.93;;;;;;;16.18;71.66;98277.53;5076167;28;20032;-74
2023/10/31 10:34:52;;;;;;;3.60;1.10;;;;;;;16.18;71.54;98271.56;5075973;28;20043;-71
2023/10/31 10:37:23;;;;;;;1.95;1.48;;;;;;;16.19;71.06;98252.66;5075805;28;20071;-72
2023/10/31 10:39:55;;;;;;;2.35;2.15;;;;;;;16.19;70.98;98247.50;5075736;28;20052;-74
2023/10/31 10:42:33;;;;;;;1.83;1.70;;;;;;;16.21;71.42;98250.81;5075863;28;20048;-72
2023/10/31 10:45:05;;;;;;;3.30;2.20;;;;;;;16.26;71.24;98243.72;5074263;28;20052;-73
2023/10/31 10:47:37;;;;;;;8.40;1.15;;;;;;;16.19;71.52;98242.34;5075681;28;20048;-71
2023/10/31 10:50:08;;;;;;;0.63;0.63;;;;;;;16.27;71.44;98243.66;5075723;28;20048;-74
2023/10/31 10:52:44;;;;;;;1.65;1.48;;;;;;;16.26;71.25;98228.28;5074742;28;20040;-72
2023/10/31 10:55:16;;;;;;;1.98;1.33;;;;;;;16.30;71.39;98216.91;5074334;28;20064;-74
2023/10/31 10:57:54;;;;;;;0.80;0.80;;;;;;;16.35;70.99;98194.38;5075430;28;20478;-72
2023/10/31 11:00:25;;;;;;;0.47;0.47;;;;;;;16.28;70.83;98190.41;5071665;28;20540;-75
2023/10/31 11:02:54;;;;;;;0.40;0.40;;;;;;;16.43;70.49;98210.28;5075454;28;20516;-71
2023/10/31 11:05:24;;;;;;;0.40;0.40;;;;;;;16.49;70.99;98212.56;5075537;28;20045;-71
2023/10/31 11:07:58;;;;;;;2.60;2.03;;;;;;;16.50;70.97;98212.50;5069156;28;20067;-72
2023/10/31 11:10:28;;;;;;;1.05;0.90;;;;;;;16.42;70.87;98214.59;5064783;28;20110;-72
2023/10/31 11:12:57;;;;;;;0.60;0.60;;;;;;;16.31;70.59;98206.56;5073064;28;20119;-73
2023/10/31 11:15:28;;;;;;;1.20;0.70;;;;;;;16.37;70.35;98215.72;5075203;28;20551;-75
2023/10/31 11:17:58;;;;;;;0.40;0.40;;;;;;;16.37;70.54;98223.44;5075298;28;20044;-74
2023/10/31 11:20:28;;;;;;;0.70;0.70;;;;;;;16.33;70.81;98217.63;5074186;28;20068;-75
2023/10/31 11:23:04;;;;;;;0.80;0.80;;;;;;;16.32;71.15;98217.69;5073780;28;20048;-75
2023/10/31 11:25:33;;;;;;;1.00;1.00;;;;;;;16.28;71.13;98221.31;5075088;28;20051;-72
2023/10/31 11:28:14;;;;;;;4.75;1.77;;;;;;;16.26;71.49;98217.97;5075374;28;20043;-74
2023/10/31 11:30:43;;;;;;;0.77;0.77;;;;;;;16.23;71.82;98193.22;5061510;28;20041;-75
2023/10/31 11:33:14;;;;;;;0.50;0.50;;;;;;;16.22;71.83;98190.72;5067026;28;20106;-74
2023/10/31 11:35:44;;;;;;;0.68;0.68;;;;;;;16.19;71.78;98186.56;5074561;28;20052;-72
2023/10/31 11:38:15;;;;;;;3.00;1.42;;;;;;;16.16;71.91;98185.84;5073751;28;20048;-73
2023/10/31 11:41:06;;;;;;;0.88;0.70;;;;;;;16.16;72.09;98203.88;5073408;28;20127;-72
2023/10/31 11:43:54;;;;;;;0.93;0.93;;;;;;;16.15;72.35;98212.50;5072965;28;20052;-71
2023/10/31 11:46:25;;;;;;;0.73;0.73;;;;;;;16.10;72.73;98213.53;5073209;28;20103;-72